sensor_id;sensor_type;location;lat;lon;timestamp;pressure;altitude;pressure_sealevel;temperature;humidity
47280;BME280;34064;44.942;0.008;2024-01-30T00:00:05;100089.34;;;14.13;63.74
47280;BME280;34064;44.942;0.008;2024-01-30T00:02:32;100096.63;;;14.11;63.90
47280;BME280;34064;44.942;0.008;2024-01-30T00:04:59;100094.16;;;14.08;63.91
47280;BME280;34064;44.942;0.008;2024-01-30T00:07:25;100087.22;;;14.06;63.91
47280;BME280;34064;44.942;0.008;2024-01-30T00:09:52;100090.75;;;14.06;64.06
47280;BME280;34064;44.942;0.008;2024-01-30T00:12:18;100083.91;;;14.02;63.93
47280;BME280;34064;44.942;0.008;2024-01-30T00:14:45;100093.13;;;13.98;64.03
47280;BME280;34064;44.942;0.008;2024-01-30T00:17:11;100092.25;;;13.97;64.15
47280;BME280;34064;44.942;0.008;2024-01-30T00:19:37;100091.28;;;13.98;64.09
47280;BME280;34064;44.942;0.008;2024-01-30T00:22:04;100090.53;;;13.96;64.14
47280;BME280;34064;44.942;0.008;2024-01-30T00:24:30;100095.13;;;13.94;64.01
47280;BME280;34064;44.942;0.008;2024-01-30T00:26:56;100096.19;;;13.92;64.11
47280;BME280;34064;44.942;0.008;2024-01-30T00:29:22;100099.81;;;13.91;64.13
47280;BME280;34064;44.942;0.008;2024-01-30T00:31:49;100106.13;;;13.89;64.16
47280;BME280;34064;44.942;0.008;2024-01-30T00:34:15;100103.47;;;13.89;64.22
47280;BME280;34064;44.942;0.008;2024-01-30T00:36:42;100102.81;;;13.86;64.37
47280;BME280;34064;44.942;0.008;2024-01-30T00:39:08;100097.47;;;13.86;64.21
47280;BME280;34064;44.942;0.008;2024-01-30T00:41:35;100103.69;;;13.86;64.23
47280;BME280;34064;44.942;0.008;2024-01-30T00:44:02;100103.91;;;13.83;64.58
47280;BME280;34064;44.942;0.008;2024-01-30T00:46:28;100110.94;;;13.84;64.37
47280;BME280;34064;44.942;0.008;2024-01-30T00:48:54;100109.13;;;13.85;64.26
47280;BME280;34064;44.942;0.008;2024-01-30T00:51:21;100112.88;;;13.82;64.31
47280;BME280;34064;44.942;0.008;2024-01-30T00:53:47;100110.06;;;13.84;64.41
47280;BME280;34064;44.942;0.008;2024-01-30T00:56:13;100110.06;;;13.84;64.18
47280;BME280;34064;44.942;0.008;2024-01-30T00:58:40;100112.03;;;13.82;64.45
47280;BME280;34064;44.942;0.008;2024-01-30T01:01:06;100117.38;;;13.82;64.21
47280;BME280;34064;44.942;0.008;2024-01-30T01:03:33;100113.75;;;13.83;64.51
47280;BME280;34064;44.942;0.008;2024-01-30T01:05:59;100120.75;;;13.84;64.24
47280;BME280;34064;44.942;0.008;2024-01-30T01:08:26;100112.75;;;13.84;64.31
47280;BME280;34064;44.942;0.008;2024-01-30T01:10:52;100113.06;;;13.79;64.44
47280;BME280;34064;44.942;0.008;2024-01-30T01:13:19;100119.72;;;13.73;64.46
47280;BME280;34064;44.942;0.008;2024-01-30T01:15:46;100123.22;;;13.74;64.55
47280;BME280;34064;44.942;0.008;2024-01-30T01:18:12;100119.91;;;13.70;64.65
47280;BME280;34064;44.942;0.008;2024-01-30T01:20:38;100124.31;;;13.71;64.49
47280;BME280;34064;44.942;0.008;2024-01-30T01:23:04;100127.06;;;13.70;64.65
47280;BME280;34064;44.942;0.008;2024-01-30T01:25:31;100128.03;;;13.69;64.56
47280;BME280;34064;44.942;0.008;2024-01-30T01:27:57;100130.81;;;13.67;64.60
47280;BME280;34064;44.942;0.008;2024-01-30T01:30:23;100126.41;;;13.66;64.66
47280;BME280;34064;44.942;0.008;2024-01-30T01:32:51;100129.19;;;13.65;64.83
47280;BME280;34064;44.942;0.008;2024-01-30T01:35:24;100128.44;;;13.63;64.67
47280;BME280;34064;44.942;0.008;2024-01-30T01:37:54;100124.19;;;13.60;64.55
47280;BME280;34064;44.942;0.008;2024-01-30T01:40:27;100129.72;;;13.57;64.62
47280;BME280;34064;44.942;0.008;2024-01-30T01:42:55;100127.28;;;13.54;64.82
47280;BME280;34064;44.942;0.008;2024-01-30T01:45:22;100130.13;;;13.51;64.82
47280;BME280;34064;44.942;0.008;2024-01-30T01:47:51;100135.47;;;13.51;64.94
47280;BME280;34064;44.942;0.008;2024-01-30T01:50:18;100131.22;;;13.48;64.71
47280;BME280;34064;44.942;0.008;2024-01-30T01:52:49;100129.50;;;13.47;64.85
47280;BME280;34064;44.942;0.008;2024-01-30T01:55:20;100134.94;;;13.46;64.71
47280;BME280;34064;44.942;0.008;2024-01-30T01:57:52;100136.00;;;13.43;65.07
47280;BME280;34064;44.942;0.008;2024-01-30T02:00:19;100131.72;;;13.40;65.10
47280;BME280;34064;44.942;0.008;2024-01-30T02:02:46;100138.00;;;13.39;64.89
47280;BME280;34064;44.942;0.008;2024-01-30T02:05:13;100134.56;;;13.37;64.96
47280;BME280;34064;44.942;0.008;2024-01-30T02:07:40;100142.88;;;13.33;64.99
47280;BME280;34064;44.942;0.008;2024-01-30T02:10:08;100143.09;;;13.30;64.92
47280;BME280;34064;44.942;0.008;2024-01-30T02:12:36;100144.16;;;13.27;65.00
47280;BME280;34064;44.942;0.008;2024-01-30T02:15:02;100143.28;;;13.26;65.02
47280;BME280;34064;44.942;0.008;2024-01-30T02:17:29;100146.16;;;13.23;65.05
47280;BME280;34064;44.942;0.008;2024-01-30T02:19:55;100148.09;;;13.21;64.93
47280;BME280;34064;44.942;0.008;2024-01-30T02:22:22;100147.31;;;13.19;65.09
47280;BME280;34064;44.942;0.008;2024-01-30T02:24:49;100144.75;;;13.18;65.09
47280;BME280;34064;44.942;0.008;2024-01-30T02:27:16;100152.41;;;13.09;65.15
47280;BME280;34064;44.942;0.008;2024-01-30T02:29:42;100148.59;;;13.14;65.15
47280;BME280;34064;44.942;0.008;2024-01-30T02:32:08;100161.16;;;13.11;65.03
47280;BME280;34064;44.942;0.008;2024-01-30T02:34:35;100154.97;;;13.11;65.17
47280;BME280;34064;44.942;0.008;2024-01-30T02:37:01;100156.78;;;13.10;65.00
47280;BME280;34064;44.942;0.008;2024-01-30T02:39:27;100156.03;;;13.08;65.01
47280;BME280;34064;44.942;0.008;2024-01-30T02:41:53;100154.34;;;13.07;65.18
47280;BME280;34064;44.942;0.008;2024-01-30T02:44:20;100152.63;;;13.06;64.98
47280;BME280;34064;44.942;0.008;2024-01-30T02:46:47;100151.75;;;13.06;65.11
47280;BME280;34064;44.942;0.008;2024-01-30T02:49:13;100160.69;;;13.05;65.27
47280;BME280;34064;44.942;0.008;2024-01-30T02:51:39;100162.63;;;13.03;65.13
47280;BME280;34064;44.942;0.008;2024-01-30T02:54:06;100161.88;;;13.01;65.10
47280;BME280;34064;44.942;0.008;2024-01-30T02:56:32;100160.28;;;12.98;65.12
47280;BME280;34064;44.942;0.008;2024-01-30T02:58:58;100169.22;;;12.97;65.04
47280;BME280;34064;44.942;0.008;2024-01-30T03:01:25;100159.59;;;12.94;65.09
47280;BME280;34064;44.942;0.008;2024-01-30T03:03:51;100162.38;;;12.93;65.17
47280;BME280;34064;44.942;0.008;2024-01-30T03:06:17;100174.94;;;12.91;65.13
47280;BME280;34064;44.942;0.008;2024-01-30T03:08:46;100178.66;;;12.88;64.93
47280;BME280;34064;44.942;0.008;2024-01-30T03:11:12;100176.19;;;12.85;65.18
47280;BME280;34064;44.942;0.008;2024-01-30T03:13:38;100184.28;;;12.84;65.18
47280;BME280;34064;44.942;0.008;2024-01-30T03:16:05;100179.91;;;12.83;65.21
47280;BME280;34064;44.942;0.008;2024-01-30T03:18:31;100177.25;;;12.83;65.21
47280;BME280;34064;44.942;0.008;2024-01-30T03:20:58;100179.06;;;12.82;65.05
47280;BME280;34064;44.942;0.008;2024-01-30T03:23:24;100176.59;;;12.79;65.07
47280;BME280;34064;44.942;0.008;2024-01-30T03:25:50;100179.56;;;12.74;65.24
47280;BME280;34064;44.942;0.008;2024-01-30T03:28:17;100186.72;;;12.74;65.16
47280;BME280;34064;44.942;0.008;2024-01-30T03:30:43;100182.91;;;12.63;64.98
47280;BME280;34064;44.942;0.008;2024-01-30T03:33:09;100183.75;;;12.64;65.10
47280;BME280;34064;44.942;0.008;2024-01-30T03:35:35;100183.97;;;12.61;65.20
47280;BME280;34064;44.942;0.008;2024-01-30T03:38:02;100187.59;;;12.60;65.16
47280;BME280;34064;44.942;0.008;2024-01-30T03:40:28;100183.19;;;12.59;65.14
47280;BME280;34064;44.942;0.008;2024-01-30T03:42:54;100184.34;;;12.55;65.16
47280;BME280;34064;44.942;0.008;2024-01-30T03:45:21;100187.09;;;12.53;65.17
47280;BME280;34064;44.942;0.008;2024-01-30T03:47:47;100191.56;;;12.53;65.17
47280;BME280;34064;44.942;0.008;2024-01-30T03:50:13;100191.78;;;12.50;65.12
47280;BME280;34064;44.942;0.008;2024-01-30T03:52:40;100191.00;;;12.47;65.08
47280;BME280;34064;44.942;0.008;2024-01-30T03:55:06;100188.53;;;12.44;65.10
47280;BME280;34064;44.942;0.008;2024-01-30T03:57:32;100193.09;;;12.42;65.18
47280;BME280;34064;44.942;0.008;2024-01-30T03:59:59;100200.34;;;12.40;65.28
47280;BME280;34064;44.942;0.008;2024-01-30T04:02:25;100201.38;;;12.38;65.03
47280;BME280;34064;44.942;0.008;2024-01-30T04:04:51;100207.69;;;12.37;65.11
47280;BME280;34064;44.942;0.008;2024-01-30T04:07:18;100203.38;;;12.34;65.28
47280;BME280;34064;44.942;0.008;2024-01-30T04:09:44;100203.38;;;12.34;65.05
47280;BME280;34064;44.942;0.008;2024-01-30T04:12:10;100200.72;;;12.34;65.13
47280;BME280;34064;44.942;0.008;2024-01-30T04:14:39;100207.97;;;12.32;64.98
47280;BME280;34064;44.942;0.008;2024-01-30T04:17:05;100205.47;;;12.29;65.19
47280;BME280;34064;44.942;0.008;2024-01-30T04:19:31;100201.09;;;12.28;65.13
47280;BME280;34064;44.942;0.008;2024-01-30T04:21:57;100199.38;;;12.27;65.11
47280;BME280;34064;44.942;0.008;2024-01-30T04:24:24;100210.13;;;12.25;65.06
47280;BME280;34064;44.942;0.008;2024-01-30T04:26:50;100211.84;;;12.26;65.14
47280;BME280;34064;44.942;0.008;2024-01-30T04:29:16;100208.31;;;12.26;65.25
47280;BME280;34064;44.942;0.008;2024-01-30T04:31:43;100206.59;;;12.25;65.20
47280;BME280;34064;44.942;0.008;2024-01-30T04:34:09;100206.81;;;12.22;65.27
47280;BME280;34064;44.942;0.008;2024-01-30T04:36:35;100206.03;;;12.20;65.18
47280;BME280;34064;44.942;0.008;2024-01-30T04:39:02;100216.81;;;12.18;65.04
47280;BME280;34064;44.942;0.008;2024-01-30T04:41:29;100222.19;;;12.16;65.09
47280;BME280;34064;44.942;0.008;2024-01-30T04:43:57;100218.75;;;12.14;65.29
47280;BME280;34064;44.942;0.008;2024-01-30T04:46:24;100225.06;;;12.13;65.20
47280;BME280;34064;44.942;0.008;2024-01-30T04:48:50;100233.91;;;12.14;65.30
47280;BME280;34064;44.942;0.008;2024-01-30T04:51:16;100227.72;;;12.13;65.47
47280;BME280;34064;44.942;0.008;2024-01-30T04:53:43;100220.03;;;12.09;65.81
47280;BME280;34064;44.942;0.008;2024-01-30T04:56:09;100227.81;;;12.12;65.48
47280;BME280;34064;44.942;0.008;2024-01-30T04:58:36;100226.00;;;12.12;65.60
47280;BME280;34064;44.942;0.008;2024-01-30T05:01:03;100239.34;;;12.12;65.36
47280;BME280;34064;44.942;0.008;2024-01-30T05:03:32;100229.63;;;12.11;65.45
47280;BME280;34064;44.942;0.008;2024-01-30T05:05:58;100235.91;;;12.10;65.50
47280;BME280;34064;44.942;0.008;2024-01-30T05:08:25;100238.66;;;12.09;65.54
47280;BME280;34064;44.942;0.008;2024-01-30T05:10:51;100250.16;;;12.09;65.22
47280;BME280;34064;44.942;0.008;2024-01-30T05:13:17;100250.16;;;12.09;65.44
47280;BME280;34064;44.942;0.008;2024-01-30T05:15:43;100244.06;;;12.07;65.56
47280;BME280;34064;44.942;0.008;2024-01-30T05:18:10;100246.66;;;12.09;65.66
47280;BME280;34064;44.942;0.008;2024-01-30T05:20:36;100250.34;;;12.06;65.52
47280;BME280;34064;44.942;0.008;2024-01-30T05:23:02;100260.16;;;12.06;65.50
47280;BME280;34064;44.942;0.008;2024-01-30T05:25:29;100261.09;;;12.05;65.53
47280;BME280;34064;44.942;0.008;2024-01-30T05:27:55;100261.19;;;12.03;65.70
47280;BME280;34064;44.942;0.008;2024-01-30T05:30:21;100262.16;;;12.02;65.60
47280;BME280;34064;44.942;0.008;2024-01-30T05:32:48;100260.41;;;12.01;65.50
47280;BME280;34064;44.942;0.008;2024-01-30T05:35:14;100270.19;;;12.00;65.48
47280;BME280;34064;44.942;0.008;2024-01-30T05:37:40;100274.69;;;12.00;65.58
47280;BME280;34064;44.942;0.008;2024-01-30T05:40:07;100272.13;;;11.98;65.69
47280;BME280;34064;44.942;0.008;2024-01-30T05:42:34;100279.25;;;11.98;65.64
47280;BME280;34064;44.942;0.008;2024-01-30T05:45:00;100278.44;;;11.96;65.63
47280;BME280;34064;44.942;0.008;2024-01-30T05:47:26;100269.69;;;11.94;65.55
47280;BME280;34064;44.942;0.008;2024-01-30T05:49:52;100275.03;;;11.94;65.60
47280;BME280;34064;44.942;0.008;2024-01-30T05:52:19;100276.03;;;11.91;65.56
47280;BME280;34064;44.942;0.008;2024-01-30T05:54:46;100280.69;;;11.88;65.66
47280;BME280;34064;44.942;0.008;2024-01-30T05:57:12;100287.91;;;11.85;65.67
47280;BME280;34064;44.942;0.008;2024-01-30T05:59:38;100282.56;;;11.85;65.67
47280;BME280;34064;44.942;0.008;2024-01-30T06:02:04;100288.09;;;11.82;65.60
47280;BME280;34064;44.942;0.008;2024-01-30T06:04:31;100285.50;;;11.81;65.69
47280;BME280;34064;44.942;0.008;2024-01-30T06:06:57;100275.91;;;11.78;65.56
47280;BME280;34064;44.942;0.008;2024-01-30T06:09:23;100283.88;;;11.78;65.71
47280;BME280;34064;44.942;0.008;2024-01-30T06:11:50;100274.19;;;11.77;65.59
47280;BME280;34064;44.942;0.008;2024-01-30T06:14:16;100269.81;;;11.76;65.62
47280;BME280;34064;44.942;0.008;2024-01-30T06:16:42;100265.72;;;11.70;65.50
47280;BME280;34064;44.942;0.008;2024-01-30T06:19:08;100269.41;;;11.68;65.61
47280;BME280;34064;44.942;0.008;2024-01-30T06:21:35;100280.16;;;11.66;65.50
47280;BME280;34064;44.942;0.008;2024-01-30T06:24:03;100278.53;;;11.64;65.49
47280;BME280;34064;44.942;0.008;2024-01-30T06:26:29;100278.59;;;11.62;65.58
47280;BME280;34064;44.942;0.008;2024-01-30T06:28:55;100290.38;;;11.58;65.60
47280;BME280;34064;44.942;0.008;2024-01-30T06:31:22;100290.38;;;11.58;65.48
47280;BME280;34064;44.942;0.008;2024-01-30T06:33:49;100287.81;;;11.57;65.48
47280;BME280;34064;44.942;0.008;2024-01-30T06:36:15;100288.81;;;11.54;65.54
47280;BME280;34064;44.942;0.008;2024-01-30T06:38:41;100289.69;;;11.54;65.51
47280;BME280;34064;44.942;0.008;2024-01-30T06:41:08;100296.91;;;11.52;65.62
47280;BME280;34064;44.942;0.008;2024-01-30T06:43:34;100297.94;;;11.50;65.63
47280;BME280;34064;44.942;0.008;2024-01-30T06:46:00;100302.59;;;11.46;65.50
47280;BME280;34064;44.942;0.008;2024-01-30T06:48:27;100297.53;;;11.42;65.56
47280;BME280;34064;44.942;0.008;2024-01-30T06:50:54;100298.47;;;11.41;65.72
47280;BME280;34064;44.942;0.008;2024-01-30T06:53:21;100302.06;;;11.39;65.88
47280;BME280;34064;44.942;0.008;2024-01-30T06:55:47;100305.75;;;11.37;65.82
47280;BME280;34064;44.942;0.008;2024-01-30T06:58:13;100314.69;;;11.36;65.86
47280;BME280;34064;44.942;0.008;2024-01-30T07:00:39;100313.91;;;11.34;65.85
47280;BME280;34064;44.942;0.008;2024-01-30T07:03:06;100319.31;;;11.32;65.79
47280;BME280;34064;44.942;0.008;2024-01-30T07:05:32;100319.38;;;11.31;65.71
47280;BME280;34064;44.942;0.008;2024-01-30T07:07:59;100317.66;;;11.30;65.77
47280;BME280;34064;44.942;0.008;2024-01-30T07:10:25;100333.63;;;11.30;65.69
47280;BME280;34064;44.942;0.008;2024-01-30T07:12:51;100324.91;;;11.28;65.70
47280;BME280;34064;44.942;0.008;2024-01-30T07:15:18;100326.78;;;11.26;65.70
47280;BME280;34064;44.942;0.008;2024-01-30T07:17:46;100331.22;;;11.25;65.64
47280;BME280;34064;44.942;0.008;2024-01-30T07:20:12;100323.50;;;11.20;65.79
47280;BME280;34064;44.942;0.008;2024-01-30T07:22:39;100327.97;;;11.20;65.81
47280;BME280;34064;44.942;0.008;2024-01-30T07:25:06;100325.41;;;11.18;65.72
47280;BME280;34064;44.942;0.008;2024-01-30T07:27:32;100334.63;;;11.11;65.72
47280;BME280;34064;44.942;0.008;2024-01-30T07:29:59;100332.75;;;11.13;65.68
47280;BME280;34064;44.942;0.008;2024-01-30T07:32:25;100332.75;;;11.13;65.63
47280;BME280;34064;44.942;0.008;2024-01-30T07:34:51;100339.03;;;11.12;65.70
47280;BME280;34064;44.942;0.008;2024-01-30T07:37:17;100348.72;;;11.13;65.74
47280;BME280;34064;44.942;0.008;2024-01-30T07:39:44;100341.69;;;11.12;65.71
47280;BME280;34064;44.942;0.008;2024-01-30T07:42:10;100352.50;;;11.09;65.81
47280;BME280;34064;44.942;0.008;2024-01-30T07:44:37;100354.38;;;11.07;65.75
47280;BME280;34064;44.942;0.008;2024-01-30T07:47:04;100356.25;;;11.05;65.68
47280;BME280;34064;44.942;0.008;2024-01-30T07:49:30;100362.50;;;11.04;65.79
47280;BME280;34064;44.942;0.008;2024-01-30T07:51:56;100370.66;;;11.01;65.81
47280;BME280;34064;44.942;0.008;2024-01-30T07:54:23;100377.69;;;11.02;66.00
47280;BME280;34064;44.942;0.008;2024-01-30T07:56:50;100378.63;;;11.01;65.89
47280;BME280;34064;44.942;0.008;2024-01-30T07:59:16;100383.00;;;11.02;65.95
47280;BME280;34064;44.942;0.008;2024-01-30T08:01:42;100374.97;;;11.03;65.85
47280;BME280;34064;44.942;0.008;2024-01-30T08:04:08;100374.72;;;11.08;65.86
47280;BME280;34064;44.942;0.008;2024-01-30T08:06:35;100375.66;;;11.07;66.10
47280;BME280;34064;44.942;0.008;2024-01-30T08:09:01;100382.69;;;11.08;65.85
47280;BME280;34064;44.942;0.008;2024-01-30T08:11:28;100384.22;;;11.12;65.90
47280;BME280;34064;44.942;0.008;2024-01-30T08:13:55;100399.16;;;11.15;65.88
47280;BME280;34064;44.942;0.008;2024-01-30T08:16:21;100389.41;;;11.15;65.86
47280;BME280;34064;44.942;0.008;2024-01-30T08:18:48;100386.75;;;11.15;65.85
47280;BME280;34064;44.942;0.008;2024-01-30T08:21:14;100391.13;;;11.16;66.04
47280;BME280;34064;44.942;0.008;2024-01-30T08:23:40;100394.47;;;11.20;66.02
47280;BME280;34064;44.942;0.008;2024-01-30T08:26:07;100397.22;;;11.18;66.02
47280;BME280;34064;44.942;0.008;2024-01-30T08:28:33;100393.53;;;11.21;65.99
47280;BME280;34064;44.942;0.008;2024-01-30T08:31:00;100392.84;;;11.17;66.40
47280;BME280;34064;44.942;0.008;2024-01-30T08:33:26;100394.56;;;11.18;66.52
47280;BME280;34064;44.942;0.008;2024-01-30T08:35:52;100395.31;;;11.20;66.40
47280;BME280;34064;44.942;0.008;2024-01-30T08:38:18;100394.31;;;11.23;66.17
47280;BME280;34064;44.942;0.008;2024-01-30T08:40:45;100396.78;;;11.26;66.18
47280;BME280;34064;44.942;0.008;2024-01-30T08:43:12;100399.38;;;11.28;66.08
47280;BME280;34064;44.942;0.008;2024-01-30T08:45:38;100402.78;;;11.30;66.05
47280;BME280;34064;44.942;0.008;2024-01-30T08:48:05;100405.16;;;11.36;66.01
47280;BME280;34064;44.942;0.008;2024-01-30T08:50:31;100403.16;;;11.39;66.02
47280;BME280;34064;44.942;0.008;2024-01-30T08:52:58;100400.25;;;11.44;65.75
47280;BME280;34064;44.942;0.008;2024-01-30T08:55:24;100391.00;;;11.51;65.86
47280;BME280;34064;44.942;0.008;2024-01-30T08:57:50;100395.28;;;11.54;66.50
47280;BME280;34064;44.942;0.008;2024-01-30T09:00:18;100396.31;;;11.67;66.17
47280;BME280;34064;44.942;0.008;2024-01-30T09:02:44;100398.38;;;11.78;65.97
47280;BME280;34064;44.942;0.008;2024-01-30T09:05:11;100392.53;;;11.88;65.90
47280;BME280;34064;44.942;0.008;2024-01-30T09:07:37;100389.34;;;11.97;65.97
47280;BME280;34064;44.942;0.008;2024-01-30T09:10:04;100388.94;;;12.05;66.14
47280;BME280;34064;44.942;0.008;2024-01-30T09:12:30;100376.03;;;12.13;66.07
47280;BME280;34064;44.942;0.008;2024-01-30T09:14:56;100378.16;;;12.22;66.02
47280;BME280;34064;44.942;0.008;2024-01-30T09:17:23;100372.19;;;12.33;65.93
47280;BME280;34064;44.942;0.008;2024-01-30T09:19:49;100367.09;;;12.44;66.15
47280;BME280;34064;44.942;0.008;2024-01-30T09:22:15;100369.97;;;12.56;66.12
47280;BME280;34064;44.942;0.008;2024-01-30T09:24:41;100364.69;;;12.70;66.05
47280;BME280;34064;44.942;0.008;2024-01-30T09:27:08;100355.06;;;12.82;66.10
47280;BME280;34064;44.942;0.008;2024-01-30T09:29:34;100353.63;;;12.91;66.01
47280;BME280;34064;44.942;0.008;2024-01-30T09:32:02;100342.38;;;13.00;66.01
47280;BME280;34064;44.942;0.008;2024-01-30T09:34:29;100348.09;;;13.08;66.19
47280;BME280;34064;44.942;0.008;2024-01-30T09:36:56;100339.25;;;13.22;66.00
47280;BME280;34064;44.942;0.008;2024-01-30T09:39:22;100341.22;;;13.33;66.05
47280;BME280;34064;44.942;0.008;2024-01-30T09:42:14;100333.63;;;13.41;66.09
47280;BME280;34064;44.942;0.008;2024-01-30T09:44:45;100337.41;;;13.52;65.94
47280;BME280;34064;44.942;0.008;2024-01-30T09:47:13;100336.06;;;13.59;65.94
47280;BME280;34064;44.942;0.008;2024-01-30T09:49:42;100332.88;;;13.67;65.98
47280;BME280;34064;44.942;0.008;2024-01-30T09:52:09;100322.38;;;13.78;65.88
47280;BME280;34064;44.942;0.008;2024-01-30T09:54:37;100328.91;;;13.87;65.90
47280;BME280;34064;44.942;0.008;2024-01-30T09:57:04;100320.28;;;13.96;65.69
47280;BME280;34064;44.942;0.008;2024-01-30T09:59:32;100325.13;;;14.04;65.59
47280;BME280;34064;44.942;0.008;2024-01-30T10:01:59;100328.13;;;14.12;65.58
47280;BME280;34064;44.942;0.008;2024-01-30T10:04:26;100320.56;;;14.19;65.73
47280;BME280;34064;44.942;0.008;2024-01-30T10:06:52;100315.34;;;14.30;65.47
47280;BME280;34064;44.942;0.008;2024-01-30T10:09:18;100318.53;;;14.35;65.42
47280;BME280;34064;44.942;0.008;2024-01-30T10:11:45;100323.25;;;14.45;65.39
47280;BME280;34064;44.942;0.008;2024-01-30T10:14:11;100313.84;;;14.52;65.21
47280;BME280;34064;44.942;0.008;2024-01-30T10:16:38;100318.78;;;14.58;65.20
47280;BME280;34064;44.942;0.008;2024-01-30T10:19:04;100320.28;;;14.62;65.37
47280;BME280;34064;44.942;0.008;2024-01-30T10:21:30;100308.75;;;14.75;64.93
47280;BME280;34064;44.942;0.008;2024-01-30T10:23:57;100308.31;;;14.81;64.89
47280;BME280;34064;44.942;0.008;2024-01-30T10:26:23;100316.44;;;14.92;64.68
47280;BME280;34064;44.942;0.008;2024-01-30T10:28:49;100309.06;;;14.96;64.63
47280;BME280;34064;44.942;0.008;2024-01-30T10:31:17;100314.06;;;15.01;64.84
47280;BME280;34064;44.942;0.008;2024-01-30T10:33:45;100309.03;;;15.09;64.56
47280;BME280;34064;44.942;0.008;2024-01-30T10:36:14;100307.84;;;15.13;64.57
47280;BME280;34064;44.942;0.008;2024-01-30T10:38:43;100309.75;;;15.24;64.31
47280;BME280;34064;44.942;0.008;2024-01-30T10:41:13;100303.22;;;15.28;64.23
47280;BME280;34064;44.942;0.008;2024-01-30T10:43:41;100299.25;;;15.34;64.44
47280;BME280;34064;44.942;0.008;2024-01-30T10:46:29;100300.28;;;15.44;64.06
47280;BME280;34064;44.942;0.008;2024-01-30T10:49:01;100303.69;;;15.46;64.15
47280;BME280;34064;44.942;0.008;2024-01-30T10:51:28;100297.78;;;15.54;63.59
47280;BME280;34064;44.942;0.008;2024-01-30T10:53:56;100301.06;;;15.57;63.52
47280;BME280;34064;44.942;0.008;2024-01-30T10:56:22;100293.78;;;15.59;63.76
47280;BME280;34064;44.942;0.008;2024-01-30T10:58:53;100286.03;;;15.68;63.26
47280;BME280;34064;44.942;0.008;2024-01-30T11:01:22;100280.94;;;15.76;63.42
47280;BME280;34064;44.942;0.008;2024-01-30T11:03:52;100281.47;;;15.81;63.40
47280;BME280;34064;44.942;0.008;2024-01-30T11:06:23;100272.66;;;15.92;63.07
47280;BME280;34064;44.942;0.008;2024-01-30T11:09:03;100276.34;;;16.02;63.10
47280;BME280;34064;44.942;0.008;2024-01-30T11:11:51;100273.19;;;16.09;62.73
47280;BME280;34064;44.942;0.008;2024-01-30T11:14:24;100264.78;;;16.13;62.90
47280;BME280;34064;44.942;0.008;2024-01-30T11:16:52;100262.63;;;16.18;62.77
47280;BME280;34064;44.942;0.008;2024-01-30T11:19:31;100255.69;;;16.27;62.43
47280;BME280;34064;44.942;0.008;2024-01-30T11:21:58;100256.06;;;16.34;62.70
47280;BME280;34064;44.942;0.008;2024-01-30T11:24:26;100243.78;;;16.43;62.43
47280;BME280;34064;44.942;0.008;2024-01-30T11:26:59;100236.59;;;16.55;62.25
47280;BME280;34064;44.942;0.008;2024-01-30T11:29:28;100231.94;;;16.68;62.29
47280;BME280;34064;44.942;0.008;2024-01-30T11:31:55;100225.84;;;16.77;61.87
47280;BME280;34064;44.942;0.008;2024-01-30T11:34:22;100227.16;;;16.83;61.87
47280;BME280;34064;44.942;0.008;2024-01-30T11:36:55;100226.56;;;16.91;61.56
47280;BME280;34064;44.942;0.008;2024-01-30T11:39:25;100220.22;;;16.92;61.31
47280;BME280;34064;44.942;0.008;2024-01-30T11:41:55;100220.47;;;17.00;61.61
47280;BME280;34064;44.942;0.008;2024-01-30T11:44:22;100201.41;;;17.14;61.22
47280;BME280;34064;44.942;0.008;2024-01-30T11:46:50;100200.69;;;17.24;61.15
47280;BME280;34064;44.942;0.008;2024-01-30T11:49:19;100203.59;;;17.32;60.82
47280;BME280;34064;44.942;0.008;2024-01-30T11:51:46;100193.16;;;17.39;60.90
47280;BME280;34064;44.942;0.008;2024-01-30T11:54:15;100187.88;;;17.49;60.67
47280;BME280;34064;44.942;0.008;2024-01-30T11:56:42;100182.84;;;17.55;60.33
47280;BME280;34064;44.942;0.008;2024-01-30T11:59:09;100173.16;;;17.64;60.04
47280;BME280;34064;44.942;0.008;2024-01-30T12:01:36;100168.25;;;17.69;60.05
47280;BME280;34064;44.942;0.008;2024-01-30T12:04:02;100173.47;;;17.71;60.06
47280;BME280;34064;44.942;0.008;2024-01-30T12:06:29;100173.81;;;17.77;59.80
47280;BME280;34064;44.942;0.008;2024-01-30T12:09:00;100162.69;;;17.82;59.81
47280;BME280;34064;44.942;0.008;2024-01-30T12:11:27;100168.06;;;17.82;59.82
47280;BME280;34064;44.942;0.008;2024-01-30T12:13:54;100158.88;;;17.85;59.79
47280;BME280;34064;44.942;0.008;2024-01-30T12:16:21;100157.63;;;17.89;59.68
47280;BME280;34064;44.942;0.008;2024-01-30T12:18:48;100154.41;;;17.95;59.85
47280;BME280;34064;44.942;0.008;2024-01-30T12:21:17;100155.59;;;18.02;59.48
47280;BME280;34064;44.942;0.008;2024-01-30T12:23:44;100158.03;;;18.05;58.83
47280;BME280;34064;44.942;0.008;2024-01-30T12:26:11;100150.41;;;18.11;59.19
47280;BME280;34064;44.942;0.008;2024-01-30T12:28:48;100160.66;;;18.17;59.33
47280;BME280;34064;44.942;0.008;2024-01-30T12:31:15;100151.19;;;18.22;58.98
47280;BME280;34064;44.942;0.008;2024-01-30T12:33:41;100148.94;;;18.28;59.08
47280;BME280;34064;44.942;0.008;2024-01-30T12:36:08;100139.22;;;18.36;58.78
47280;BME280;34064;44.942;0.008;2024-01-30T12:38:34;100135.97;;;18.43;58.35
47280;BME280;34064;44.942;0.008;2024-01-30T12:41:00;100140.69;;;18.50;58.66
47280;BME280;34064;44.942;0.008;2024-01-30T12:43:27;100139.00;;;18.59;58.19
47280;BME280;34064;44.942;0.008;2024-01-30T12:45:54;100132.22;;;18.65;58.05
47280;BME280;34064;44.942;0.008;2024-01-30T12:48:21;100125.88;;;18.76;57.37